Aérodrome :
LOGIN :

S'inscrire | Disclaimer

   EN    FR    IT 

 










Légende :    VFR   VFR Marginal   IFR   IFR Intensif   IFR Très Intensif
Visi : 
Plafond : 
>= 8 km
>= 3000ft
5 à 8 km
1000 à 3000 ft
1500m à 5 km
500 à 1000 ft
800 à 1500m
200 à 500 ft
< 800m
< 200 ft
Symboles :   Orages  Brouillard  Fortes neiges  Fortes précipitations  Vent > 20 kt
SIGMETs :   Divers  Orages  Givrage  Turbulence  Onde Orograph.  Cendres Volcan.






- Altitude de l'aérodrome : 306 ft
- Code IATA : EMA


EGNX - Nottingham East Midlands

DERNIER METAR :
  • 162220Z 02010KT 340V040 4800 RA BKN004 16/15 Q1011

METARs EXPIRÉS :
  • 162150Z 02008KT 340V060 6000 RA BKN004 16/16 Q1011
  • 162120Z 02008KT 9999 -RA BKN006 17/16 Q1011
  • 162050Z 04007KT 010V070 9999 -RA SCT006 BKN022 17/16 Q1011
  • 162020Z 02006KT 340V050 9000 -RA BKN007 17/16 Q1011
  • 161950Z 02007KT 350V050 9999 SCT010 17/16 Q1010

TAF AMD TAF EGNX
Valide du 16 à 22h jusqu'au 17 à 18h UTC


162202Z 1622/1718 02008KT 9999 BKN020
TEMPO 1622/1706 6000 SHRA BKN004
PROB30
TEMPO 1622/1624 +TSGS BKN035CB
PROB30
TEMPO 1706/1715 4000 +SHRA BKN007
PROB30
TEMPO 1715/1718 8000 -SHRA BKN014
ATIS : +44 1332 852 852 (ext 3201)



MET'MAP, la Météo Aéronautique d'un coup d'oeil ! - Copyright ORBIFLY Décembre 2007 - Disclaimer

ORBIFLY MET'MAP TEAM :

Programmation & Développement : Alexandra Zaïnal
Sur une idée originale de : Baudouin d'Aumeries
Soutien technique & logistique : Manuel Goepfert
Assistance : Marc-Olivier Méhu




SOURCES & CREDITS :

   NOAA